createdAt,value
2023-04-17T00:00:38.373Z,15.22
2023-04-17T00:03:05.141Z,15.02
2023-04-17T00:06:27.631Z,15.05
2023-04-17T00:09:26.851Z,15.08
2023-04-17T00:11:53.436Z,15.22
2023-04-17T00:14:20.100Z,15.03
2023-04-17T00:16:46.751Z,14.76
2023-04-17T00:19:14.022Z,14.83
2023-04-17T00:21:40.817Z,14.95
2023-04-17T00:24:32.481Z,14.77
2023-04-17T00:27:14.436Z,15.04
2023-04-17T00:29:41.082Z,15.14
2023-04-17T00:32:29.446Z,15.14
2023-04-17T00:35:42.528Z,15.21
2023-04-17T00:55:43.156Z,14.99
2023-04-17T00:58:11.028Z,15.00
2023-04-17T01:00:37.977Z,14.99
2023-04-17T01:03:05.397Z,14.83
2023-04-17T01:06:22.130Z,14.74
2023-04-17T01:09:04.327Z,14.97
2023-04-17T01:11:30.962Z,14.91
2023-04-17T01:13:57.474Z,14.66
2023-04-17T01:16:24.280Z,14.88
2023-04-17T01:18:51.327Z,14.64
2023-04-17T01:21:17.998Z,14.82
2023-04-17T01:24:05.120Z,14.67
2023-04-17T01:26:32.814Z,14.85
2023-04-17T01:29:00.267Z,14.86
2023-04-17T01:31:30.237Z,14.80
2023-04-17T01:34:11.934Z,14.84
2023-04-17T01:37:22.150Z,14.36
2023-04-17T01:56:35.925Z,14.72
2023-04-17T01:59:02.503Z,14.73
2023-04-17T02:01:29.088Z,14.72
2023-04-17T02:03:56.519Z,14.75
2023-04-17T02:06:23.213Z,14.73
2023-04-17T02:09:36.763Z,14.70
2023-04-17T02:15:15.392Z,14.75
2023-04-17T02:17:41.962Z,14.62
2023-04-17T02:20:09.018Z,14.70
2023-04-17T02:22:35.566Z,14.72
2023-04-17T02:25:02.165Z,14.71
2023-04-17T02:27:29.919Z,14.59
2023-04-17T02:30:15.473Z,14.47
2023-04-17T02:32:42.239Z,14.23
2023-04-17T02:35:09.362Z,14.37
2023-04-17T02:37:36.244Z,14.20
2023-04-17T02:40:40.507Z,14.39
2023-04-17T02:43:22.445Z,14.36
2023-04-17T02:45:49.031Z,14.44
2023-04-17T02:48:16.350Z,14.60
2023-04-17T02:50:42.968Z,14.40
2023-04-17T02:53:09.580Z,14.44
2023-04-17T02:55:36.229Z,14.61
2023-04-17T02:58:02.880Z,14.66
2023-04-17T03:00:29.712Z,14.63
2023-04-17T03:02:56.503Z,14.27
2023-04-17T03:05:24.002Z,14.57
2023-04-17T03:07:51.506Z,14.40
2023-04-17T03:10:18.759Z,14.02
2023-04-17T03:15:27.063Z,14.32
2023-04-17T03:17:53.713Z,14.40
2023-04-17T03:20:29.786Z,14.25
2023-04-17T03:22:56.614Z,14.48
2023-04-17T03:25:23.158Z,14.52
2023-04-17T03:28:07.873Z,14.59
2023-04-17T03:30:57.993Z,14.36
2023-04-17T03:33:42.996Z,14.41
2023-04-17T03:36:09.687Z,14.32
2023-04-17T03:38:36.683Z,14.28
2023-04-17T03:41:05.755Z,14.02
2023-04-17T03:43:32.351Z,14.26
2023-04-17T03:45:58.934Z,14.31
2023-04-17T03:48:38.343Z,14.40
2023-04-17T03:51:04.938Z,14.59
2023-04-17T03:53:31.615Z,14.44
2023-04-17T03:55:58.193Z,14.42
2023-04-17T04:06:54.413Z,14.40
2023-04-17T04:09:21.482Z,14.72
2023-04-17T04:11:48.292Z,14.42
2023-04-17T04:19:38.670Z,14.17
2023-04-17T04:22:06.865Z,14.12
2023-04-17T04:24:34.087Z,14.49
2023-04-17T04:27:39.647Z,14.43
2023-04-17T04:30:58.305Z,14.48
2023-04-17T04:33:37.714Z,14.52
2023-04-17T04:36:04.446Z,14.89
2023-04-17T04:38:32.719Z,14.90
2023-04-17T04:41:06.290Z,14.84
2023-04-17T04:43:33.776Z,14.84
2023-04-17T04:46:00.442Z,14.42
2023-04-17T04:48:27.597Z,14.71
2023-04-17T04:50:57.420Z,14.93
2023-04-17T04:53:24.630Z,14.88
2023-04-17T04:55:51.195Z,14.82
2023-04-17T04:58:17.755Z,14.75
2023-04-17T05:00:44.461Z,14.82
2023-04-17T05:03:11.367Z,14.71
2023-04-17T05:05:40.073Z,14.84
2023-04-17T05:08:06.740Z,14.83
2023-04-17T05:10:33.351Z,14.71
2023-04-17T05:12:59.976Z,14.68
2023-04-17T05:15:27.867Z,14.50
2023-04-17T05:17:54.500Z,14.27
2023-04-17T05:20:21.398Z,14.57
2023-04-17T05:22:48.051Z,14.69
2023-04-17T05:25:16.271Z,14.46
2023-04-17T05:27:42.878Z,14.31
2023-04-17T05:30:09.949Z,14.49
2023-04-17T05:32:36.887Z,14.58
2023-04-17T05:35:04.506Z,14.91
2023-04-17T05:37:31.101Z,14.88
2023-04-17T05:40:00.044Z,14.54
2023-04-17T05:42:26.616Z,14.80
2023-04-17T05:44:53.278Z,15.02
2023-04-17T05:47:21.621Z,14.99
2023-04-17T05:49:51.186Z,15.10
2023-04-17T05:52:17.886Z,15.10
2023-04-17T05:54:44.688Z,15.17
2023-04-17T05:57:11.623Z,15.72
2023-04-17T05:59:38.393Z,14.95
2023-04-17T06:02:05.102Z,15.17
2023-04-17T06:04:32.357Z,15.44
2023-04-17T06:06:59.151Z,15.26
2023-04-17T06:09:26.562Z,15.05
2023-04-17T06:11:53.123Z,14.62
2023-04-17T06:14:19.722Z,14.95
2023-04-17T06:16:46.330Z,14.49
2023-04-17T06:19:13.094Z,14.99
2023-04-17T06:21:39.799Z,15.00
2023-04-17T06:24:06.966Z,15.00
2023-04-17T06:26:33.505Z,14.44
2023-04-17T06:29:01.154Z,14.58
2023-04-17T06:34:09.697Z,14.62
2023-04-17T06:36:36.400Z,14.34
2023-04-17T06:39:03.082Z,14.92
2023-04-17T06:41:29.666Z,15.21
2023-04-17T06:43:56.327Z,15.29
2023-04-17T06:46:32.125Z,15.38
2023-04-17T06:49:23.857Z,15.12
2023-04-17T06:52:12.443Z,15.60
2023-04-17T06:54:39.079Z,15.72
2023-04-17T06:57:09.801Z,15.48
2023-04-17T06:59:36.722Z,14.83
2023-04-17T07:02:22.077Z,15.36
2023-04-17T07:04:48.832Z,15.59
2023-04-17T07:07:15.832Z,15.56
2023-04-17T07:09:43.100Z,15.51
2023-04-17T07:12:09.962Z,15.87
2023-04-17T07:14:36.602Z,16.12
2023-04-17T07:17:04.304Z,16.31
2023-04-17T07:19:34.685Z,16.67
2023-04-17T07:22:01.769Z,16.55
2023-04-17T07:24:28.466Z,16.14
2023-04-17T07:26:57.116Z,16.54
2023-04-17T07:29:23.801Z,16.70
2023-04-17T07:31:50.628Z,16.87
2023-04-17T07:34:17.234Z,16.38
2023-04-17T07:36:44.183Z,16.98
2023-04-17T07:39:11.251Z,17.06
2023-04-17T07:41:38.594Z,17.03
2023-04-17T07:44:06.150Z,16.90
2023-04-17T07:46:33.906Z,15.92
2023-04-17T07:49:00.670Z,16.31
2023-04-17T07:51:27.748Z,16.07
2023-04-17T07:53:54.290Z,16.71
2023-04-17T07:56:20.876Z,16.88
2023-04-17T07:58:47.440Z,16.42
2023-04-17T08:01:15.670Z,16.59
2023-04-17T08:03:44.856Z,16.75
2023-04-17T08:06:12.030Z,17.51
2023-04-17T08:08:38.873Z,17.33
2023-04-17T08:11:05.829Z,16.66
2023-04-17T08:13:32.565Z,16.53
2023-04-17T08:16:01.641Z,16.88
2023-04-17T08:18:28.270Z,17.37
2023-04-17T08:20:55.023Z,17.76
2023-04-17T08:23:21.658Z,18.60
2023-04-17T08:25:48.290Z,19.50
2023-04-17T08:28:14.865Z,18.78
2023-04-17T08:30:41.441Z,18.83
2023-04-17T08:33:08.060Z,18.40
2023-04-17T08:35:34.700Z,18.61
2023-04-17T08:38:01.441Z,19.43
2023-04-17T08:40:28.236Z,19.13
2023-04-17T08:42:55.128Z,18.25
2023-04-17T08:45:26.511Z,18.58
2023-04-17T08:47:53.250Z,18.78
2023-04-17T08:50:21.934Z,19.71
2023-04-17T08:52:50.805Z,19.25
2023-04-17T08:55:22.370Z,19.27
2023-04-17T08:58:09.163Z,20.26
2023-04-17T09:00:37.926Z,20.80
2023-04-17T09:03:07.906Z,20.69
2023-04-17T09:05:38.522Z,20.24
2023-04-17T09:08:24.164Z,19.22
2023-04-17T09:10:53.049Z,19.42
2023-04-17T09:13:25.611Z,19.35
2023-04-17T09:16:07.349Z,18.97
2023-04-17T09:18:35.520Z,19.54
2023-04-17T09:21:03.490Z,19.17
2023-04-17T09:23:53.253Z,19.81
2023-04-17T09:26:25.007Z,19.41
2023-04-17T09:29:11.081Z,19.76
2023-04-17T09:31:39.658Z,19.68
2023-04-17T09:34:07.787Z,19.76
2023-04-17T09:36:36.964Z,18.87
2023-04-17T09:39:25.652Z,19.27
2023-04-17T09:42:10.471Z,19.08
2023-04-17T09:44:37.967Z,18.88
2023-04-17T09:47:05.521Z,19.39
2023-04-17T09:49:39.869Z,19.73
2023-04-17T09:52:07.261Z,19.02
2023-04-17T09:54:37.834Z,19.41
2023-04-17T09:57:08.587Z,19.80
2023-04-17T09:59:39.761Z,19.42
2023-04-17T10:02:34.868Z,19.41
2023-04-17T10:05:32.712Z,19.56
2023-04-17T10:33:53.008Z,19.64
2023-04-17T10:36:38.313Z,20.02
2023-04-17T10:39:21.655Z,19.83
2023-04-17T10:42:06.784Z,20.36
2023-04-17T10:44:48.861Z,20.23
2023-04-17T10:47:22.653Z,20.12
2023-04-17T10:49:59.663Z,20.01
2023-04-17T10:52:42.362Z,18.84
2023-04-17T10:55:14.453Z,19.37
2023-04-17T10:58:01.181Z,19.92
2023-04-17T11:00:35.631Z,20.23
2023-04-17T11:03:04.377Z,20.25
2023-04-17T11:05:34.284Z,20.09
2023-04-17T11:08:02.064Z,19.99
2023-04-17T11:10:29.432Z,20.19
2023-04-17T11:13:06.178Z,19.89
2023-04-17T11:15:35.554Z,19.35
2023-04-17T11:18:03.583Z,19.29
2023-04-17T11:20:35.004Z,18.77
2023-04-17T11:23:02.715Z,19.05
2023-04-17T11:25:34.772Z,19.73
2023-04-17T11:28:03.849Z,19.83
2023-04-17T11:30:31.709Z,19.61
2023-04-17T11:37:00.265Z,20.54
2023-04-17T11:39:30.317Z,19.71
2023-04-17T11:41:57.242Z,19.94
2023-04-17T11:44:24.575Z,20.26
2023-04-17T11:46:58.788Z,20.70
2023-04-17T11:49:29.419Z,20.54
2023-04-17T11:51:58.896Z,20.76
2023-04-17T11:54:30.172Z,20.28
2023-04-17T11:57:06.706Z,20.50
2023-04-17T11:59:35.331Z,20.34
2023-04-17T12:02:03.337Z,20.45
2023-04-17T12:04:33.591Z,20.07
2023-04-17T12:07:05.584Z,19.98
2023-04-17T12:09:33.778Z,19.53
2023-04-17T12:12:07.540Z,19.62
2023-04-17T12:14:34.611Z,19.96
2023-04-17T12:17:01.465Z,19.39
2023-04-17T12:19:29.590Z,19.60
2023-04-17T12:22:09.540Z,20.09
2023-04-17T12:24:36.310Z,20.55
2023-04-17T12:27:03.955Z,20.03
2023-04-17T12:29:42.966Z,20.63
2023-04-17T12:33:20.728Z,20.30
2023-04-17T12:36:31.942Z,20.61
2023-04-17T12:38:58.583Z,20.41
2023-04-17T12:41:27.987Z,20.14
2023-04-17T12:43:55.466Z,20.46
2023-04-17T12:46:22.137Z,20.55
2023-04-17T12:48:49.953Z,19.82
2023-04-17T12:53:53.080Z,19.99
2023-04-17T12:56:19.998Z,20.04
2023-04-17T12:58:46.588Z,19.46
2023-04-17T13:01:50.932Z,19.63
2023-04-17T13:05:07.508Z,19.54
2023-04-17T13:07:56.996Z,20.12
2023-04-17T13:10:23.788Z,20.19
2023-04-17T13:12:50.359Z,19.90
2023-04-17T13:15:17.102Z,19.70
2023-04-17T13:17:45.191Z,19.96
2023-04-17T13:20:13.136Z,19.86
2023-04-17T13:22:39.877Z,19.70
2023-04-17T13:25:07.056Z,19.80
2023-04-17T13:27:33.798Z,19.75
2023-04-17T13:30:00.418Z,19.85
2023-04-17T13:32:27.059Z,19.84
2023-04-17T13:34:53.886Z,19.65
2023-04-17T13:37:20.545Z,18.97
2023-04-17T13:39:47.107Z,19.48
2023-04-17T13:42:16.680Z,19.82
2023-04-17T13:44:43.299Z,20.04
2023-04-17T13:47:09.913Z,20.25
2023-04-17T13:49:36.488Z,20.48
2023-04-17T13:52:03.768Z,20.34
2023-04-17T13:54:30.373Z,19.99
2023-04-17T13:56:58.384Z,19.82
2023-04-17T13:59:25.452Z,18.93
2023-04-17T14:01:52.164Z,18.68
2023-04-17T14:04:19.185Z,18.83
2023-04-17T14:06:49.572Z,18.69
2023-04-17T14:09:17.241Z,18.29
2023-04-17T14:11:43.844Z,18.71
2023-04-17T14:14:12.606Z,18.68
2023-04-17T14:16:40.661Z,18.91
2023-04-17T14:19:13.978Z,18.94
2023-04-17T14:21:41.738Z,18.69
2023-04-17T14:24:08.649Z,18.83
2023-04-17T14:26:35.807Z,19.09
2023-04-17T14:29:02.387Z,19.02
2023-04-17T14:31:29.061Z,19.16
2023-04-17T14:33:55.810Z,19.16
2023-04-17T14:36:22.396Z,19.34
2023-04-17T14:38:51.210Z,19.42
2023-04-17T14:41:18.061Z,19.46
2023-04-17T14:43:45.622Z,19.66
2023-04-17T14:46:12.672Z,18.78
2023-04-17T14:48:54.213Z,19.03
2023-04-17T14:51:22.410Z,19.13
2023-04-17T14:53:49.032Z,18.99
2023-04-17T14:56:15.981Z,19.19
2023-04-17T14:58:43.415Z,18.84
2023-04-17T15:01:10.286Z,18.47
2023-04-17T15:03:37.218Z,19.09
2023-04-17T15:06:05.374Z,18.55
2023-04-17T15:08:32.418Z,18.67
2023-04-17T15:11:00.785Z,18.38
2023-04-17T15:13:27.406Z,18.48
2023-04-17T15:15:55.184Z,18.78
2023-04-17T15:18:21.743Z,19.04
2023-04-17T15:21:07.202Z,19.24
2023-04-17T15:23:34.764Z,19.37
2023-04-17T15:26:01.962Z,19.33
2023-04-17T15:28:28.550Z,19.26
2023-04-17T15:37:09.290Z,18.80
2023-04-17T15:39:36.798Z,18.50
2023-04-17T15:42:04.314Z,18.78
2023-04-17T15:44:30.893Z,18.96
2023-04-17T15:46:57.545Z,19.01
2023-04-17T15:49:25.089Z,18.36
2023-04-17T15:51:52.019Z,18.32
2023-04-17T15:54:18.636Z,18.46
2023-04-17T15:56:45.240Z,18.53
2023-04-17T15:59:12.082Z,18.11
2023-04-17T16:01:38.960Z,18.52
2023-04-17T16:04:06.004Z,18.68
2023-04-17T16:06:33.184Z,18.68
2023-04-17T16:09:00.329Z,18.24
2023-04-17T16:11:28.139Z,18.50
2023-04-17T16:13:54.680Z,18.57
2023-04-17T16:16:21.237Z,18.57
2023-04-17T16:18:48.062Z,18.51
2023-04-17T16:21:14.677Z,18.72
2023-04-17T16:23:41.330Z,18.34
2023-04-17T16:26:08.181Z,18.52
2023-04-17T16:28:35.314Z,18.50
2023-04-17T16:31:01.917Z,18.23
2023-04-17T16:33:28.529Z,18.02
2023-04-17T16:35:57.192Z,18.46
2023-04-17T16:38:23.746Z,18.38
2023-04-17T16:40:51.063Z,17.74
2023-04-17T16:43:17.780Z,17.81
2023-04-17T16:45:44.395Z,17.00
2023-04-17T16:48:11.362Z,17.42
2023-04-17T16:50:38.080Z,17.68
2023-04-17T16:53:04.919Z,16.90
2023-04-17T16:55:31.607Z,17.26
2023-04-17T16:58:00.196Z,17.19
2023-04-17T17:00:26.769Z,16.80
2023-04-17T17:02:53.465Z,17.24
2023-04-17T17:05:20.378Z,17.36
2023-04-17T17:07:47.062Z,16.76
2023-04-17T17:10:15.732Z,16.96
2023-04-17T17:12:44.570Z,16.96
2023-04-17T17:15:11.511Z,16.96
2023-04-17T17:17:38.109Z,16.47
2023-04-17T17:20:05.606Z,16.84
2023-04-17T17:22:34.234Z,16.91
2023-04-17T17:25:00.843Z,16.96
2023-04-17T17:27:27.389Z,16.93
2023-04-17T17:29:58.470Z,17.28
2023-04-17T17:32:28.961Z,17.19
2023-04-17T17:34:55.564Z,17.25
2023-04-17T17:37:22.196Z,17.50
2023-04-17T17:39:48.752Z,17.64
2023-04-17T17:42:15.319Z,17.96
2023-04-17T17:44:41.956Z,18.13
2023-04-17T17:47:08.650Z,18.04
2023-04-17T17:49:37.862Z,17.91
2023-04-17T17:52:04.596Z,17.92
2023-04-17T17:54:36.503Z,17.27
2023-04-17T17:57:04.375Z,16.77
2023-04-17T17:59:30.983Z,17.11
2023-04-17T18:01:58.762Z,17.20
2023-04-17T18:04:25.673Z,17.23
2023-04-17T18:06:52.342Z,17.16
2023-04-17T18:09:19.326Z,17.41
2023-04-17T18:11:46.084Z,17.10
2023-04-17T18:14:12.812Z,17.07
2023-04-17T18:16:39.640Z,17.34
2023-04-17T18:19:06.871Z,17.52
2023-04-17T18:21:34.002Z,17.36
2023-04-17T18:24:01.740Z,16.97
2023-04-17T18:29:03.764Z,16.80
2023-04-17T18:31:30.495Z,16.59
2023-04-17T18:34:01.995Z,16.47
2023-04-17T18:36:55.778Z,16.87
2023-04-17T18:39:51.303Z,17.26
2023-04-17T18:42:21.120Z,16.86
2023-04-17T18:44:49.700Z,16.29
2023-04-17T18:47:17.155Z,16.58
2023-04-17T18:49:43.816Z,16.88
2023-04-17T18:52:13.600Z,17.00
2023-04-17T18:54:41.888Z,16.58
2023-04-17T18:57:08.873Z,17.00
2023-04-17T18:59:37.122Z,16.86
2023-04-17T19:02:09.324Z,16.97
2023-04-17T19:04:50.591Z,16.94
2023-04-17T19:07:21.028Z,17.02
2023-04-17T19:09:47.631Z,16.62
2023-04-17T19:12:18.956Z,16.68
2023-04-17T19:14:48.317Z,15.75
2023-04-17T19:17:18.713Z,16.51
2023-04-17T19:19:45.657Z,16.07
2023-04-17T19:22:14.128Z,16.04
2023-04-17T19:24:43.473Z,15.94
2023-04-17T19:27:10.359Z,15.66
2023-04-17T19:29:38.585Z,15.78
2023-04-17T19:32:07.760Z,15.49
2023-04-17T19:34:34.784Z,15.97
2023-04-17T19:37:02.023Z,15.79
2023-04-17T19:39:31.659Z,15.73
2023-04-17T19:41:59.189Z,15.60
2023-04-17T19:44:30.369Z,15.74
2023-04-17T19:46:57.226Z,16.19
2023-04-17T19:49:23.912Z,16.25
2023-04-17T19:51:51.102Z,16.23
2023-04-17T19:54:17.878Z,16.33
2023-04-17T19:56:45.232Z,16.32
2023-04-17T19:59:15.032Z,16.17
2023-04-17T20:01:44.763Z,16.33
2023-04-17T20:04:11.543Z,16.14
2023-04-17T20:06:39.694Z,16.22
2023-04-17T20:09:06.801Z,16.24
2023-04-17T20:11:33.937Z,15.94
2023-04-17T20:14:00.852Z,15.70
2023-04-17T20:16:27.614Z,15.92
2023-04-17T20:18:56.593Z,15.64
2023-04-17T20:21:24.359Z,15.41
2023-04-17T20:24:01.919Z,15.80
2023-04-17T20:26:28.603Z,15.21
2023-04-17T20:40:25.048Z,14.67
2023-04-17T20:42:51.724Z,14.77
2023-04-17T20:45:18.411Z,14.48
2023-04-17T20:47:56.613Z,14.86
2023-04-17T20:50:24.629Z,14.70
2023-04-17T20:52:51.254Z,15.03
2023-04-17T20:55:37.814Z,14.96
2023-04-17T20:58:29.454Z,14.75
2023-04-17T21:01:01.980Z,14.70
2023-04-17T21:03:31.834Z,14.86
2023-04-17T21:05:59.297Z,14.85
2023-04-17T21:08:26.201Z,15.06
2023-04-17T21:10:52.767Z,15.10
2023-04-17T21:13:19.370Z,15.09
2023-04-17T21:34:26.100Z,14.61
2023-04-17T21:36:54.175Z,15.19
2023-04-17T21:39:21.511Z,14.72
2023-04-17T21:41:48.211Z,14.95
2023-04-17T21:44:15.413Z,14.21
2023-04-17T21:46:46.079Z,14.38
2023-04-17T21:49:28.255Z,13.90
2023-04-17T21:51:55.090Z,14.24
2023-04-17T21:54:22.044Z,14.20
2023-04-17T21:56:48.620Z,14.38
2023-04-17T21:59:24.427Z,14.24
2023-04-17T22:02:06.521Z,14.18
2023-04-17T22:04:45.546Z,14.25
2023-04-17T22:07:12.147Z,14.40
2023-04-17T22:09:38.740Z,14.52
2023-04-17T22:12:15.089Z,14.46
2023-04-17T22:14:41.643Z,14.30
2023-04-17T22:17:08.181Z,14.25
2023-04-17T22:19:47.028Z,14.15
2023-04-17T22:22:13.548Z,14.37
2023-04-17T22:24:41.676Z,15.05
2023-04-17T22:27:08.311Z,15.04
2023-04-17T22:29:47.049Z,14.23
2023-04-17T22:32:40.667Z,14.70
2023-04-17T22:41:08.666Z,14.43
2023-04-17T22:49:27.083Z,14.73
2023-04-17T22:51:53.727Z,15.01
2023-04-17T22:54:23.130Z,15.09
2023-04-17T22:56:50.076Z,14.72
2023-04-17T22:59:16.612Z,14.60
2023-04-17T23:01:43.243Z,14.80
2023-04-17T23:04:29.846Z,14.88
2023-04-17T23:07:28.097Z,14.95
2023-04-17T23:10:15.322Z,14.73
2023-04-17T23:12:42.078Z,14.49
2023-04-17T23:15:09.427Z,14.57
2023-04-17T23:17:36.054Z,14.47
2023-04-17T23:20:02.611Z,14.51
2023-04-17T23:22:31.526Z,14.60
2023-04-17T23:25:18.814Z,14.42
2023-04-17T23:27:45.443Z,14.38
2023-04-17T23:30:12.499Z,14.36
2023-04-17T23:33:04.143Z,14.30
2023-04-17T23:35:55.762Z,14.65
2023-04-17T23:55:36.089Z,13.98
2023-04-17T23:58:02.778Z,13.49
